sensor_id;sensor_type;location;lat;lon;timestamp;P1;durP1;ratioP1;P2;durP2;ratioP2
68025;SDS011;54819;48.030;14.710;2023-02-08T07:34:28;95.60;;;28.60;;
68025;SDS011;54819;48.030;14.710;2023-02-08T07:36:57;71.80;;;23.90;;
68025;SDS011;54819;48.030;14.710;2023-02-08T07:39:24;85.10;;;23.00;;
68025;SDS011;54819;48.030;14.710;2023-02-08T07:44:19;62.80;;;17.40;;
68025;SDS011;54819;48.030;14.710;2023-02-08T07:46:46;104.40;;;24.50;;
68025;SDS011;54819;48.030;14.710;2023-02-08T07:49:13;84.10;;;19.80;;
68025;SDS011;54819;48.030;14.710;2023-02-08T07:51:40;104.40;;;24.40;;
68025;SDS011;54819;48.030;14.710;2023-02-08T07:54:07;106.00;;;22.70;;
68025;SDS011;54819;48.030;14.710;2023-02-08T07:56:34;98.50;;;23.50;;
68025;SDS011;54819;48.030;14.710;2023-02-08T07:59:01;104.00;;;24.50;;
68025;SDS011;54819;48.030;14.710;2023-02-08T08:01:28;97.70;;;23.70;;
68025;SDS011;54819;48.030;14.710;2023-02-08T08:03:55;86.60;;;22.30;;
68025;SDS011;54819;48.030;14.710;2023-02-08T08:06:22;87.50;;;22.00;;
68025;SDS011;54819;48.030;14.710;2023-02-08T08:08:50;81.20;;;20.30;;
68025;SDS011;54819;48.030;14.710;2023-02-08T08:11:18;83.00;;;20.30;;
68025;SDS011;54819;48.030;14.710;2023-02-08T08:13:46;79.40;;;23.00;;
68025;SDS011;54819;48.030;14.710;2023-02-08T08:16:14;83.10;;;20.60;;
68025;SDS011;54819;48.030;14.710;2023-02-08T08:18:41;79.90;;;18.90;;
68025;SDS011;54819;48.030;14.710;2023-02-08T08:21:08;64.30;;;17.60;;
68025;SDS011;54819;48.030;14.710;2023-02-08T08:23:36;60.10;;;17.10;;
68025;SDS011;54819;48.030;14.710;2023-02-08T08:26:11;71.40;;;18.50;;
68025;SDS011;54819;48.030;14.710;2023-02-08T08:28:40;68.60;;;18.90;;
68025;SDS011;54819;48.030;14.710;2023-02-08T08:31:10;67.20;;;19.50;;
68025;SDS011;54819;48.030;14.710;2023-02-08T08:33:38;73.50;;;19.80;;
68025;SDS011;54819;48.030;14.710;2023-02-08T08:36:06;71.20;;;19.40;;
68025;SDS011;54819;48.030;14.710;2023-02-08T08:38:34;77.90;;;18.60;;
68025;SDS011;54819;48.030;14.710;2023-02-08T08:41:09;88.90;;;24.50;;
68025;SDS011;54819;48.030;14.710;2023-02-08T08:43:37;96.60;;;23.20;;
68025;SDS011;54819;48.030;14.710;2023-02-08T08:46:08;80.90;;;22.60;;
68025;SDS011;54819;48.030;14.710;2023-02-08T08:48:36;77.70;;;20.20;;
68025;SDS011;54819;48.030;14.710;2023-02-08T09:47:34;87.40;;;26.60;;
68025;SDS011;54819;48.030;14.710;2023-02-08T09:50:13;100.60;;;29.10;;
68025;SDS011;54819;48.030;14.710;2023-02-08T09:52:56;96.70;;;26.30;;
68025;SDS011;54819;48.030;14.710;2023-02-08T09:55:42;112.60;;;30.10;;
68025;SDS011;54819;48.030;14.710;2023-02-08T10:00:48;104.10;;;28.60;;
68025;SDS011;54819;48.030;14.710;2023-02-08T10:06:04;96.70;;;26.20;;
68025;SDS011;54819;48.030;14.710;2023-02-08T10:08:35;84.90;;;23.40;;
68025;SDS011;54819;48.030;14.710;2023-02-08T10:13:59;81.90;;;23.10;;
68025;SDS011;54819;48.030;14.710;2023-02-08T10:26:12;91.80;;;22.90;;
68025;SDS011;54819;48.030;14.710;2023-02-08T10:28:59;88.60;;;23.70;;
68025;SDS011;54819;48.030;14.710;2023-02-08T10:31:37;83.00;;;24.10;;
68025;SDS011;54819;48.030;14.710;2023-02-08T10:36:51;73.10;;;17.10;;
68025;SDS011;54819;48.030;14.710;2023-02-08T10:39:26;88.10;;;22.90;;
68025;SDS011;54819;48.030;14.710;2023-02-08T10:41:58;102.00;;;26.90;;
68025;SDS011;54819;48.030;14.710;2023-02-08T10:45:10;111.20;;;25.80;;
68025;SDS011;54819;48.030;14.710;2023-02-08T10:48:09;96.80;;;25.40;;
68025;SDS011;54819;48.030;14.710;2023-02-08T10:50:43;86.70;;;23.10;;
68025;SDS011;54819;48.030;14.710;2023-02-08T10:53:14;56.40;;;12.60;;
68025;SDS011;54819;48.030;14.710;2023-02-08T10:55:44;106.10;;;25.80;;
68025;SDS011;54819;48.030;14.710;2023-02-08T10:58:19;98.50;;;23.10;;
68025;SDS011;54819;48.030;14.710;2023-02-08T11:00:48;71.00;;;20.60;;
68025;SDS011;54819;48.030;14.710;2023-02-08T11:03:25;99.10;;;25.20;;
68025;SDS011;54819;48.030;14.710;2023-02-08T11:05:55;104.60;;;29.00;;
68025;SDS011;54819;48.030;14.710;2023-02-08T11:08:24;103.80;;;28.90;;
68025;SDS011;54819;48.030;14.710;2023-02-08T11:13:30;95.50;;;24.90;;
68025;SDS011;54819;48.030;14.710;2023-02-08T11:16:05;98.30;;;26.10;;
68025;SDS011;54819;48.030;14.710;2023-02-08T11:18:51;84.30;;;21.70;;
68025;SDS011;54819;48.030;14.710;2023-02-08T11:21:32;73.20;;;20.50;;
68025;SDS011;54819;48.030;14.710;2023-02-08T11:26:41;78.90;;;23.00;;
68025;SDS011;54819;48.030;14.710;2023-02-08T11:29:26;74.80;;;19.10;;
68025;SDS011;54819;48.030;14.710;2023-02-08T11:34:29;60.10;;;17.50;;
68025;SDS011;54819;48.030;14.710;2023-02-08T11:37:01;76.40;;;19.80;;
68025;SDS011;54819;48.030;14.710;2023-02-08T11:39:52;68.40;;;18.80;;
68025;SDS011;54819;48.030;14.710;2023-02-08T11:42:35;61.70;;;15.10;;
68025;SDS011;54819;48.030;14.710;2023-02-08T11:45:22;72.10;;;22.10;;
68025;SDS011;54819;48.030;14.710;2023-02-08T11:47:57;69.80;;;19.20;;
68025;SDS011;54819;48.030;14.710;2023-02-08T11:50:30;73.60;;;18.90;;
68025;SDS011;54819;48.030;14.710;2023-02-08T11:53:05;75.50;;;22.20;;
68025;SDS011;54819;48.030;14.710;2023-02-08T11:55:34;77.00;;;20.60;;
68025;SDS011;54819;48.030;14.710;2023-02-08T11:58:24;60.80;;;18.70;;
68025;SDS011;54819;48.030;14.710;2023-02-08T12:00:59;62.90;;;18.10;;
68025;SDS011;54819;48.030;14.710;2023-02-08T12:03:30;75.40;;;22.00;;
68025;SDS011;54819;48.030;14.710;2023-02-08T12:06:31;64.00;;;18.90;;
68025;SDS011;54819;48.030;14.710;2023-02-08T12:09:31;49.40;;;17.50;;
68025;SDS011;54819;48.030;14.710;2023-02-08T12:16:38;64.00;;;18.20;;
68025;SDS011;54819;48.030;14.710;2023-02-08T12:18:52;70.70;;;18.90;;
68025;SDS011;54819;48.030;14.710;2023-02-08T12:21:45;85.40;;;21.60;;
68025;SDS011;54819;48.030;14.710;2023-02-08T12:27:42;77.80;;;19.60;;
68025;SDS011;54819;48.030;14.710;2023-02-08T12:30:10;65.80;;;17.80;;
68025;SDS011;54819;48.030;14.710;2023-02-08T12:35:54;62.30;;;19.40;;
68025;SDS011;54819;48.030;14.710;2023-02-08T12:39:07;61.90;;;18.90;;
68025;SDS011;54819;48.030;14.710;2023-02-08T12:45:08;78.60;;;20.30;;
68025;SDS011;54819;48.030;14.710;2023-02-08T12:47:55;79.50;;;23.10;;
68025;SDS011;54819;48.030;14.710;2023-02-08T12:50:50;63.60;;;18.10;;
68025;SDS011;54819;48.030;14.710;2023-02-08T12:53:42;73.80;;;22.70;;
68025;SDS011;54819;48.030;14.710;2023-02-08T12:58:51;64.60;;;17.40;;
68025;SDS011;54819;48.030;14.710;2023-02-08T13:01:43;57.30;;;15.70;;
68025;SDS011;54819;48.030;14.710;2023-02-08T13:04:24;63.90;;;17.80;;
68025;SDS011;54819;48.030;14.710;2023-02-08T13:07:01;59.00;;;15.40;;
68025;SDS011;54819;48.030;14.710;2023-02-08T13:12:43;38.70;;;11.70;;
68025;SDS011;54819;48.030;14.710;2023-02-08T13:15:21;52.30;;;17.20;;
68025;SDS011;54819;48.030;14.710;2023-02-08T13:17:59;55.30;;;18.40;;
68025;SDS011;54819;48.030;14.710;2023-02-08T13:20:51;56.80;;;15.40;;
68025;SDS011;54819;48.030;14.710;2023-02-08T13:26:27;52.50;;;15.90;;
68025;SDS011;54819;48.030;14.710;2023-02-08T13:29:02;63.70;;;17.70;;
68025;SDS011;54819;48.030;14.710;2023-02-08T13:31:38;56.80;;;17.50;;
68025;SDS011;54819;48.030;14.710;2023-02-08T13:37:04;45.80;;;13.20;;
68025;SDS011;54819;48.030;14.710;2023-02-08T13:40:23;42.90;;;12.10;;
68025;SDS011;54819;48.030;14.710;2023-02-08T13:43:00;43.60;;;12.70;;
68025;SDS011;54819;48.030;14.710;2023-02-08T13:45:41;47.30;;;12.90;;
68025;SDS011;54819;48.030;14.710;2023-02-08T13:48:13;46.20;;;12.90;;
68025;SDS011;54819;48.030;14.710;2023-02-08T14:09:41;45.70;;;11.80;;
68025;SDS011;54819;48.030;14.710;2023-02-08T14:12:25;23.20;;;6.10;;
68025;SDS011;54819;48.030;14.710;2023-02-08T14:15:23;17.00;;;4.80;;
68025;SDS011;54819;48.030;14.710;2023-02-08T14:18:01;10.00;;;3.40;;
68025;SDS011;54819;48.030;14.710;2023-02-08T14:20:35;13.50;;;3.40;;
68025;SDS011;54819;48.030;14.710;2023-02-08T14:23:23;10.10;;;3.80;;
68025;SDS011;54819;48.030;14.710;2023-02-08T14:25:54;11.80;;;4.10;;
68025;SDS011;54819;48.030;14.710;2023-02-08T14:28:33;9.90;;;2.70;;
68025;SDS011;54819;48.030;14.710;2023-02-08T14:31:09;8.20;;;2.40;;
68025;SDS011;54819;48.030;14.710;2023-02-08T14:33:48;9.00;;;3.40;;
68025;SDS011;54819;48.030;14.710;2023-02-08T14:36:31;13.80;;;3.80;;
68025;SDS011;54819;48.030;14.710;2023-02-08T14:39:25;38.70;;;11.70;;
68025;SDS011;54819;48.030;14.710;2023-02-08T14:41:57;29.60;;;8.60;;
68025;SDS011;54819;48.030;14.710;2023-02-08T14:50:30;32.20;;;8.60;;
68025;SDS011;54819;48.030;14.710;2023-02-08T14:53:32;33.00;;;8.70;;
68025;SDS011;54819;48.030;14.710;2023-02-08T14:56:25;30.50;;;9.10;;
68025;SDS011;54819;48.030;14.710;2023-02-08T14:59:07;23.80;;;7.20;;
68025;SDS011;54819;48.030;14.710;2023-02-08T15:01:44;23.20;;;7.00;;
68025;SDS011;54819;48.030;14.710;2023-02-08T15:04:16;7.80;;;2.60;;
68025;SDS011;54819;48.030;14.710;2023-02-08T15:06:51;9.20;;;2.90;;
68025;SDS011;54819;48.030;14.710;2023-02-08T15:09:35;6.90;;;2.20;;
68025;SDS011;54819;48.030;14.710;2023-02-08T15:14:52;7.20;;;3.10;;
68025;SDS011;54819;48.030;14.710;2023-02-08T15:17:40;11.30;;;3.00;;
68025;SDS011;54819;48.030;14.710;2023-02-08T15:20:26;8.50;;;2.80;;
68025;SDS011;54819;48.030;14.710;2023-02-08T15:25:53;6.30;;;2.30;;
68025;SDS011;54819;48.030;14.710;2023-02-08T15:28:26;8.90;;;2.80;;
68025;SDS011;54819;48.030;14.710;2023-02-08T15:30:58;11.80;;;3.70;;
68025;SDS011;54819;48.030;14.710;2023-02-08T15:33:30;10.70;;;2.80;;
68025;SDS011;54819;48.030;14.710;2023-02-08T15:36:07;7.60;;;2.40;;
68025;SDS011;54819;48.030;14.710;2023-02-08T15:38:43;8.80;;;2.70;;
68025;SDS011;54819;48.030;14.710;2023-02-08T15:41:14;16.10;;;3.10;;
68025;SDS011;54819;48.030;14.710;2023-02-08T15:43:50;10.80;;;3.40;;
68025;SDS011;54819;48.030;14.710;2023-02-08T15:46:26;7.10;;;2.60;;
68025;SDS011;54819;48.030;14.710;2023-02-08T15:48:55;8.70;;;3.00;;
68025;SDS011;54819;48.030;14.710;2023-02-08T15:51:25;10.50;;;3.00;;
68025;SDS011;54819;48.030;14.710;2023-02-08T15:53:55;6.80;;;3.10;;
68025;SDS011;54819;48.030;14.710;2023-02-08T15:56:26;4.40;;;2.30;;
68025;SDS011;54819;48.030;14.710;2023-02-08T15:59:06;12.00;;;3.60;;
68025;SDS011;54819;48.030;14.710;2023-02-08T16:01:46;9.60;;;3.40;;
68025;SDS011;54819;48.030;14.710;2023-02-08T16:04:14;13.20;;;3.70;;
68025;SDS011;54819;48.030;14.710;2023-02-08T16:06:51;11.10;;;3.30;;
68025;SDS011;54819;48.030;14.710;2023-02-08T16:09:27;11.50;;;3.80;;
68025;SDS011;54819;48.030;14.710;2023-02-08T16:11:58;9.70;;;3.00;;
68025;SDS011;54819;48.030;14.710;2023-02-08T16:14:27;11.20;;;3.20;;
68025;SDS011;54819;48.030;14.710;2023-02-08T16:17:00;9.30;;;3.50;;
68025;SDS011;54819;48.030;14.710;2023-02-08T16:19:29;8.30;;;3.50;;
68025;SDS011;54819;48.030;14.710;2023-02-08T16:22:24;13.30;;;3.90;;
68025;SDS011;54819;48.030;14.710;2023-02-08T16:28:03;11.80;;;3.00;;
68025;SDS011;54819;48.030;14.710;2023-02-08T16:30:32;11.70;;;3.00;;
68025;SDS011;54819;48.030;14.710;2023-02-08T16:33:07;9.60;;;3.40;;
68025;SDS011;54819;48.030;14.710;2023-02-08T16:35:37;11.10;;;3.50;;
68025;SDS011;54819;48.030;14.710;2023-02-08T16:38:07;12.20;;;3.70;;
68025;SDS011;54819;48.030;14.710;2023-02-08T16:40:54;9.00;;;3.10;;
68025;SDS011;54819;48.030;14.710;2023-02-08T16:43:25;14.10;;;3.50;;
68025;SDS011;54819;48.030;14.710;2023-02-08T16:48:45;8.50;;;2.90;;
68025;SDS011;54819;48.030;14.710;2023-02-08T16:51:22;13.50;;;3.80;;
68025;SDS011;54819;48.030;14.710;2023-02-08T16:53:54;12.50;;;3.70;;
68025;SDS011;54819;48.030;14.710;2023-02-08T16:56:23;11.10;;;3.20;;
68025;SDS011;54819;48.030;14.710;2023-02-08T16:58:50;8.70;;;2.50;;
68025;SDS011;54819;48.030;14.710;2023-02-08T17:01:19;12.10;;;3.60;;
68025;SDS011;54819;48.030;14.710;2023-02-08T17:03:49;13.70;;;3.80;;
68025;SDS011;54819;48.030;14.710;2023-02-08T17:06:30;14.00;;;4.20;;
68025;SDS011;54819;48.030;14.710;2023-02-08T17:09:02;30.50;;;8.40;;
68025;SDS011;54819;48.030;14.710;2023-02-08T17:11:32;25.90;;;7.90;;
68025;SDS011;54819;48.030;14.710;2023-02-08T17:14:01;27.70;;;9.10;;
68025;SDS011;54819;48.030;14.710;2023-02-08T17:16:33;24.30;;;7.60;;
68025;SDS011;54819;48.030;14.710;2023-02-08T17:19:05;34.80;;;10.30;;
68025;SDS011;54819;48.030;14.710;2023-02-08T17:21:33;44.90;;;11.90;;
68025;SDS011;54819;48.030;14.710;2023-02-08T17:26:42;43.00;;;12.70;;
68025;SDS011;54819;48.030;14.710;2023-02-08T17:29:14;44.80;;;12.70;;
68025;SDS011;54819;48.030;14.710;2023-02-08T17:31:45;36.80;;;10.50;;
68025;SDS011;54819;48.030;14.710;2023-02-08T17:34:17;48.40;;;12.50;;
68025;SDS011;54819;48.030;14.710;2023-02-08T17:36:50;44.70;;;12.10;;
68025;SDS011;54819;48.030;14.710;2023-02-08T17:39:23;47.10;;;13.10;;
68025;SDS011;54819;48.030;14.710;2023-02-08T17:41:56;33.00;;;11.00;;
68025;SDS011;54819;48.030;14.710;2023-02-08T17:44:24;33.20;;;11.30;;
68025;SDS011;54819;48.030;14.710;2023-02-08T17:46:52;54.00;;;15.50;;
68025;SDS011;54819;48.030;14.710;2023-02-08T17:49:21;48.70;;;14.10;;
68025;SDS011;54819;48.030;14.710;2023-02-08T17:51:49;46.80;;;12.70;;
68025;SDS011;54819;48.030;14.710;2023-02-08T17:54:16;38.90;;;10.10;;
68025;SDS011;54819;48.030;14.710;2023-02-08T17:56:45;43.80;;;12.70;;
68025;SDS011;54819;48.030;14.710;2023-02-08T17:59:12;47.00;;;13.10;;
68025;SDS011;54819;48.030;14.710;2023-02-08T18:01:40;34.90;;;14.50;;
68025;SDS011;54819;48.030;14.710;2023-02-08T18:04:07;46.00;;;12.30;;
68025;SDS011;54819;48.030;14.710;2023-02-08T18:06:36;37.70;;;13.10;;
68025;SDS011;54819;48.030;14.710;2023-02-08T18:09:04;33.00;;;10.30;;
68025;SDS011;54819;48.030;14.710;2023-02-08T18:11:31;50.30;;;13.60;;
68025;SDS011;54819;48.030;14.710;2023-02-08T18:13:59;47.20;;;12.60;;
68025;SDS011;54819;48.030;14.710;2023-02-08T18:16:26;46.20;;;12.80;;
68025;SDS011;54819;48.030;14.710;2023-02-08T18:18:55;41.40;;;12.30;;
68025;SDS011;54819;48.030;14.710;2023-02-08T18:21:24;48.10;;;13.20;;
68025;SDS011;54819;48.030;14.710;2023-02-08T18:23:52;37.10;;;11.20;;
68025;SDS011;54819;48.030;14.710;2023-02-08T18:26:22;44.60;;;12.50;;
68025;SDS011;54819;48.030;14.710;2023-02-08T18:28:51;47.60;;;13.70;;
68025;SDS011;54819;48.030;14.710;2023-02-08T18:31:19;42.60;;;12.20;;
68025;SDS011;54819;48.030;14.710;2023-02-08T18:33:48;43.80;;;12.80;;
68025;SDS011;54819;48.030;14.710;2023-02-08T18:36:17;37.40;;;10.30;;
68025;SDS011;54819;48.030;14.710;2023-02-08T18:38:48;45.90;;;12.70;;
68025;SDS011;54819;48.030;14.710;2023-02-08T18:41:20;33.50;;;8.70;;
68025;SDS011;54819;48.030;14.710;2023-02-08T18:43:50;27.60;;;8.30;;
68025;SDS011;54819;48.030;14.710;2023-02-08T18:46:20;40.90;;;10.20;;
68025;SDS011;54819;48.030;14.710;2023-02-08T18:48:51;45.50;;;12.50;;
68025;SDS011;54819;48.030;14.710;2023-02-08T18:51:24;38.80;;;9.80;;
68025;SDS011;54819;48.030;14.710;2023-02-08T18:53:53;37.10;;;9.70;;
68025;SDS011;54819;48.030;14.710;2023-02-08T18:56:22;47.00;;;12.70;;
68025;SDS011;54819;48.030;14.710;2023-02-08T18:58:53;34.00;;;8.90;;
68025;SDS011;54819;48.030;14.710;2023-02-08T19:01:23;32.00;;;9.20;;
68025;SDS011;54819;48.030;14.710;2023-02-08T19:03:51;38.50;;;10.20;;
68025;SDS011;54819;48.030;14.710;2023-02-08T19:06:21;39.70;;;11.00;;
68025;SDS011;54819;48.030;14.710;2023-02-08T19:08:54;47.30;;;12.00;;
68025;SDS011;54819;48.030;14.710;2023-02-08T19:11:25;40.00;;;10.10;;
68025;SDS011;54819;48.030;14.710;2023-02-08T19:13:57;35.60;;;9.30;;
68025;SDS011;54819;48.030;14.710;2023-02-08T19:16:31;43.40;;;12.30;;
68025;SDS011;54819;48.030;14.710;2023-02-08T19:19:00;37.30;;;10.10;;
68025;SDS011;54819;48.030;14.710;2023-02-08T19:21:31;38.40;;;11.70;;
68025;SDS011;54819;48.030;14.710;2023-02-08T19:24:00;43.10;;;11.00;;
68025;SDS011;54819;48.030;14.710;2023-02-08T19:26:34;45.50;;;12.50;;
68025;SDS011;54819;48.030;14.710;2023-02-08T19:29:09;47.10;;;14.20;;
68025;SDS011;54819;48.030;14.710;2023-02-08T19:31:39;48.60;;;11.50;;
68025;SDS011;54819;48.030;14.710;2023-02-08T19:34:09;35.60;;;9.80;;
68025;SDS011;54819;48.030;14.710;2023-02-08T19:36:42;43.50;;;11.90;;
68025;SDS011;54819;48.030;14.710;2023-02-08T19:39:17;49.50;;;12.80;;
68025;SDS011;54819;48.030;14.710;2023-02-08T19:41:52;36.20;;;11.40;;
68025;SDS011;54819;48.030;14.710;2023-02-08T19:44:20;47.30;;;10.60;;
68025;SDS011;54819;48.030;14.710;2023-02-08T19:46:53;33.60;;;9.60;;
68025;SDS011;54819;48.030;14.710;2023-02-08T19:49:22;47.00;;;12.60;;
68025;SDS011;54819;48.030;14.710;2023-02-08T19:51:51;50.90;;;12.50;;
68025;SDS011;54819;48.030;14.710;2023-02-08T19:54:20;46.20;;;13.20;;
68025;SDS011;54819;48.030;14.710;2023-02-08T19:56:47;35.60;;;10.30;;
68025;SDS011;54819;48.030;14.710;2023-02-08T19:59:27;56.40;;;15.10;;
68025;SDS011;54819;48.030;14.710;2023-02-08T20:02:00;29.70;;;11.10;;
68025;SDS011;54819;48.030;14.710;2023-02-08T20:04:28;47.50;;;10.70;;
68025;SDS011;54819;48.030;14.710;2023-02-08T20:06:56;43.10;;;12.10;;
68025;SDS011;54819;48.030;14.710;2023-02-08T20:09:24;62.30;;;15.20;;
68025;SDS011;54819;48.030;14.710;2023-02-08T20:11:51;43.40;;;11.70;;
68025;SDS011;54819;48.030;14.710;2023-02-08T20:14:25;38.10;;;11.80;;
68025;SDS011;54819;48.030;14.710;2023-02-08T20:16:55;51.00;;;13.10;;
68025;SDS011;54819;48.030;14.710;2023-02-08T20:19:23;56.10;;;13.60;;
68025;SDS011;54819;48.030;14.710;2023-02-08T20:21:51;48.50;;;11.60;;
68025;SDS011;54819;48.030;14.710;2023-02-08T20:24:19;39.80;;;12.30;;
68025;SDS011;54819;48.030;14.710;2023-02-08T20:26:47;53.30;;;13.90;;
68025;SDS011;54819;48.030;14.710;2023-02-08T20:29:16;48.10;;;13.80;;
68025;SDS011;54819;48.030;14.710;2023-02-08T20:31:45;44.10;;;11.90;;
68025;SDS011;54819;48.030;14.710;2023-02-08T20:34:15;67.50;;;19.50;;
68025;SDS011;54819;48.030;14.710;2023-02-08T20:36:44;72.40;;;17.90;;
68025;SDS011;54819;48.030;14.710;2023-02-08T20:39:31;74.50;;;20.90;;
68025;SDS011;54819;48.030;14.710;2023-02-08T20:41:59;63.20;;;18.60;;
68025;SDS011;54819;48.030;14.710;2023-02-08T20:44:26;86.60;;;23.00;;
68025;SDS011;54819;48.030;14.710;2023-02-08T20:46:54;60.20;;;15.20;;
68025;SDS011;54819;48.030;14.710;2023-02-08T20:49:21;54.00;;;14.20;;
68025;SDS011;54819;48.030;14.710;2023-02-08T20:51:52;51.80;;;16.00;;
68025;SDS011;54819;48.030;14.710;2023-02-08T20:54:20;58.30;;;15.70;;
68025;SDS011;54819;48.030;14.710;2023-02-08T20:56:51;63.80;;;17.20;;
68025;SDS011;54819;48.030;14.710;2023-02-08T20:59:19;64.50;;;18.40;;
68025;SDS011;54819;48.030;14.710;2023-02-08T21:01:47;85.00;;;20.90;;
68025;SDS011;54819;48.030;14.710;2023-02-08T21:06:43;41.10;;;11.00;;
68025;SDS011;54819;48.030;14.710;2023-02-08T21:09:14;70.00;;;17.50;;
68025;SDS011;54819;48.030;14.710;2023-02-08T21:11:44;64.30;;;15.80;;
68025;SDS011;54819;48.030;14.710;2023-02-08T21:14:14;60.10;;;17.10;;
68025;SDS011;54819;48.030;14.710;2023-02-08T21:16:47;60.50;;;17.90;;
68025;SDS011;54819;48.030;14.710;2023-02-08T21:19:18;60.20;;;16.60;;
68025;SDS011;54819;48.030;14.710;2023-02-08T21:21:51;55.70;;;14.40;;
68025;SDS011;54819;48.030;14.710;2023-02-08T21:24:20;70.60;;;17.70;;
68025;SDS011;54819;48.030;14.710;2023-02-08T21:26:51;57.80;;;16.10;;
68025;SDS011;54819;48.030;14.710;2023-02-08T21:29:20;70.70;;;17.90;;
68025;SDS011;54819;48.030;14.710;2023-02-08T21:34:18;37.00;;;11.00;;
68025;SDS011;54819;48.030;14.710;2023-02-08T21:36:46;35.70;;;9.80;;
68025;SDS011;54819;48.030;14.710;2023-02-08T21:39:14;23.40;;;8.80;;
68025;SDS011;54819;48.030;14.710;2023-02-08T21:41:41;45.90;;;11.10;;
68025;SDS011;54819;48.030;14.710;2023-02-08T21:44:09;41.30;;;12.20;;
68025;SDS011;54819;48.030;14.710;2023-02-08T21:46:36;45.70;;;12.70;;
68025;SDS011;54819;48.030;14.710;2023-02-08T21:49:04;47.10;;;15.00;;
68025;SDS011;54819;48.030;14.710;2023-02-08T21:51:50;47.50;;;12.90;;
68025;SDS011;54819;48.030;14.710;2023-02-08T21:54:36;43.10;;;10.60;;
68025;SDS011;54819;48.030;14.710;2023-02-08T21:57:16;24.20;;;8.10;;
68025;SDS011;54819;48.030;14.710;2023-02-08T21:59:47;54.60;;;14.30;;
68025;SDS011;54819;48.030;14.710;2023-02-08T22:02:18;66.00;;;15.80;;
68025;SDS011;54819;48.030;14.710;2023-02-08T22:04:56;37.80;;;10.70;;
68025;SDS011;54819;48.030;14.710;2023-02-08T22:07:25;34.50;;;11.20;;
68025;SDS011;54819;48.030;14.710;2023-02-08T22:09:53;33.60;;;11.30;;
68025;SDS011;54819;48.030;14.710;2023-02-08T22:12:22;35.20;;;9.70;;
68025;SDS011;54819;48.030;14.710;2023-02-08T22:14:50;36.30;;;10.30;;
68025;SDS011;54819;48.030;14.710;2023-02-08T22:17:18;37.40;;;11.20;;
68025;SDS011;54819;48.030;14.710;2023-02-08T22:19:45;30.90;;;9.30;;
68025;SDS011;54819;48.030;14.710;2023-02-08T22:22:12;34.60;;;12.20;;
68025;SDS011;54819;48.030;14.710;2023-02-08T22:24:40;43.70;;;11.40;;
68025;SDS011;54819;48.030;14.710;2023-02-08T22:27:07;40.90;;;13.10;;
68025;SDS011;54819;48.030;14.710;2023-02-08T22:29:35;18.70;;;8.10;;
68025;SDS011;54819;48.030;14.710;2023-02-08T22:32:02;37.00;;;11.60;;
68025;SDS011;54819;48.030;14.710;2023-02-08T22:34:31;53.70;;;14.40;;
68025;SDS011;54819;48.030;14.710;2023-02-08T22:36:59;45.10;;;13.30;;
68025;SDS011;54819;48.030;14.710;2023-02-08T22:39:31;50.30;;;12.30;;
68025;SDS011;54819;48.030;14.710;2023-02-08T22:42:00;46.90;;;11.30;;
68025;SDS011;54819;48.030;14.710;2023-02-08T22:44:34;44.70;;;12.90;;
68025;SDS011;54819;48.030;14.710;2023-02-08T22:47:03;40.70;;;12.10;;
68025;SDS011;54819;48.030;14.710;2023-02-08T22:49:33;35.80;;;10.50;;
68025;SDS011;54819;48.030;14.710;2023-02-08T22:52:02;62.20;;;13.50;;
68025;SDS011;54819;48.030;14.710;2023-02-08T22:54:30;68.60;;;14.30;;
68025;SDS011;54819;48.030;14.710;2023-02-08T22:56:58;50.20;;;12.10;;
68025;SDS011;54819;48.030;14.710;2023-02-08T22:59:26;72.00;;;15.40;;
68025;SDS011;54819;48.030;14.710;2023-02-08T23:01:53;85.30;;;17.10;;
68025;SDS011;54819;48.030;14.710;2023-02-08T23:04:20;81.60;;;16.90;;
68025;SDS011;54819;48.030;14.710;2023-02-08T23:06:48;65.90;;;14.90;;
68025;SDS011;54819;48.030;14.710;2023-02-08T23:09:16;52.60;;;11.80;;
68025;SDS011;54819;48.030;14.710;2023-02-08T23:11:43;65.40;;;14.40;;
68025;SDS011;54819;48.030;14.710;2023-02-08T23:14:10;77.70;;;18.10;;
68025;SDS011;54819;48.030;14.710;2023-02-08T23:16:38;74.90;;;15.60;;
68025;SDS011;54819;48.030;14.710;2023-02-08T23:19:05;60.70;;;13.90;;
68025;SDS011;54819;48.030;14.710;2023-02-08T23:21:32;55.20;;;13.80;;
68025;SDS011;54819;48.030;14.710;2023-02-08T23:24:00;58.00;;;15.00;;
68025;SDS011;54819;48.030;14.710;2023-02-08T23:26:27;86.60;;;17.50;;
68025;SDS011;54819;48.030;14.710;2023-02-08T23:28:55;100.20;;;22.70;;
68025;SDS011;54819;48.030;14.710;2023-02-08T23:31:22;96.80;;;18.30;;
68025;SDS011;54819;48.030;14.710;2023-02-08T23:33:49;75.20;;;17.00;;
68025;SDS011;54819;48.030;14.710;2023-02-08T23:36:19;67.30;;;15.80;;
68025;SDS011;54819;48.030;14.710;2023-02-08T23:38:48;60.60;;;14.20;;
68025;SDS011;54819;48.030;14.710;2023-02-08T23:41:19;52.80;;;14.40;;
68025;SDS011;54819;48.030;14.710;2023-02-08T23:43:49;58.50;;;15.90;;
68025;SDS011;54819;48.030;14.710;2023-02-08T23:46:21;84.90;;;17.70;;
68025;SDS011;54819;48.030;14.710;2023-02-08T23:48:51;90.10;;;20.60;;
68025;SDS011;54819;48.030;14.710;2023-02-08T23:51:21;90.70;;;19.40;;
68025;SDS011;54819;48.030;14.710;2023-02-08T23:53:50;73.80;;;17.20;;
68025;SDS011;54819;48.030;14.710;2023-02-08T23:56:26;81.70;;;19.10;;
68025;SDS011;54819;48.030;14.710;2023-02-08T23:58:57;93.10;;;19.90;;
